createdAt,value
2018-07-24T00:00:33.475Z,0.00
2018-07-24T00:01:33.473Z,0.00
2018-07-24T00:02:33.473Z,0.00
2018-07-24T00:03:33.465Z,0.00
2018-07-24T00:04:33.463Z,0.00
2018-07-24T00:05:33.462Z,0.00
2018-07-24T00:06:33.457Z,0.00
2018-07-24T00:07:33.453Z,0.00
2018-07-24T00:08:33.454Z,0.00
2018-07-24T00:09:33.448Z,0.00
2018-07-24T00:10:33.445Z,0.00
2018-07-24T00:11:33.441Z,0.00
2018-07-24T00:12:33.441Z,0.00
2018-07-24T00:13:33.435Z,0.00
2018-07-24T00:14:33.436Z,0.00
2018-07-24T00:15:33.428Z,0.00
2018-07-24T00:16:33.425Z,0.00
2018-07-24T00:17:33.422Z,0.00
2018-07-24T00:18:33.420Z,0.00
2018-07-24T00:19:33.416Z,0.00
2018-07-24T00:20:33.413Z,0.00
2018-07-24T00:21:33.409Z,0.00
2018-07-24T00:22:33.407Z,0.00
2018-07-24T00:23:33.406Z,0.00
2018-07-24T00:24:33.400Z,0.00
2018-07-24T00:25:33.397Z,0.00
2018-07-24T00:26:33.394Z,0.00
2018-07-24T00:27:33.391Z,0.00
2018-07-24T00:28:33.400Z,0.00
2018-07-24T00:29:33.384Z,0.00
2018-07-24T00:30:33.381Z,0.00
2018-07-24T00:31:33.377Z,0.00
2018-07-24T00:32:33.374Z,0.00
2018-07-24T00:33:33.373Z,0.00
2018-07-24T00:34:33.368Z,0.00
2018-07-24T00:35:33.364Z,0.00
2018-07-24T00:36:33.360Z,0.00
2018-07-24T00:37:33.359Z,0.00
2018-07-24T00:38:33.355Z,0.00
2018-07-24T00:39:33.351Z,0.00
2018-07-24T00:40:33.348Z,0.00
2018-07-24T00:41:33.345Z,0.00
2018-07-24T00:42:33.343Z,0.00
2018-07-24T00:43:33.341Z,0.00
2018-07-24T00:44:33.334Z,0.00
2018-07-24T00:45:33.331Z,0.00
2018-07-24T00:46:33.328Z,0.00
2018-07-24T00:47:33.373Z,0.00
2018-07-24T00:48:33.321Z,0.00
2018-07-24T00:49:33.319Z,0.00
2018-07-24T00:50:33.315Z,0.00
2018-07-24T00:51:33.317Z,0.00
2018-07-24T00:52:33.308Z,0.00
2018-07-24T00:53:33.306Z,0.00
2018-07-24T00:54:33.302Z,0.00
2018-07-24T00:55:33.298Z,0.00
2018-07-24T00:56:33.295Z,0.00
2018-07-24T00:57:33.292Z,0.00
2018-07-24T00:58:33.289Z,0.00
2018-07-24T00:59:33.284Z,0.00
2018-07-24T01:00:33.281Z,0.00
2018-07-24T01:01:33.279Z,0.00
2018-07-24T01:02:33.279Z,0.00
2018-07-24T01:03:33.272Z,0.00
2018-07-24T01:04:33.271Z,0.00
2018-07-24T01:05:33.267Z,0.00
2018-07-24T01:06:33.262Z,0.00
2018-07-24T01:07:33.258Z,0.00
2018-07-24T01:08:33.314Z,0.00
2018-07-24T01:09:33.252Z,0.00
2018-07-24T01:10:33.249Z,0.00
2018-07-24T01:11:33.245Z,0.00
2018-07-24T01:12:33.243Z,0.00
2018-07-24T01:13:33.239Z,0.00
2018-07-24T01:14:33.237Z,0.00
2018-07-24T01:15:33.232Z,0.00
2018-07-24T01:16:33.282Z,0.00
2018-07-24T01:17:33.229Z,0.00
2018-07-24T01:18:33.224Z,0.00
2018-07-24T01:19:33.219Z,0.00
2018-07-24T01:20:33.215Z,0.00
2018-07-24T01:21:33.212Z,0.00
2018-07-24T01:22:33.210Z,0.00
2018-07-24T01:23:33.209Z,0.00
2018-07-24T01:24:33.202Z,0.00
2018-07-24T01:25:33.199Z,0.00
2018-07-24T01:26:33.195Z,0.00
2018-07-24T01:27:33.191Z,0.00
2018-07-24T01:28:33.188Z,0.00
2018-07-24T01:29:33.187Z,0.00
2018-07-24T01:30:33.182Z,0.00
2018-07-24T01:31:33.177Z,0.00
2018-07-24T01:32:33.174Z,0.00
2018-07-24T01:33:33.171Z,0.00
2018-07-24T01:34:33.170Z,0.00
2018-07-24T01:35:33.163Z,0.00
2018-07-24T01:36:33.160Z,0.00
2018-07-24T01:37:33.157Z,0.00
2018-07-24T01:38:33.153Z,0.00
2018-07-24T01:39:33.149Z,0.00
2018-07-24T01:40:33.145Z,0.00
2018-07-24T01:41:33.143Z,0.00
2018-07-24T01:42:33.139Z,0.00
2018-07-24T01:43:33.134Z,0.00
2018-07-24T01:44:33.131Z,0.00
2018-07-24T01:45:33.129Z,0.00
2018-07-24T01:46:33.124Z,0.00
2018-07-24T01:47:33.121Z,0.00
2018-07-24T01:48:33.117Z,0.00
2018-07-24T01:49:33.113Z,0.00
2018-07-24T01:50:33.109Z,0.00
2018-07-24T01:51:33.104Z,0.00
2018-07-24T01:52:33.101Z,0.00
2018-07-24T01:53:33.097Z,0.00
2018-07-24T01:54:33.097Z,0.00
2018-07-24T01:55:33.089Z,0.00
2018-07-24T01:56:33.086Z,0.00
2018-07-24T01:57:33.082Z,0.00
2018-07-24T01:58:33.078Z,0.00
2018-07-24T01:59:33.074Z,0.00
2018-07-24T02:00:33.070Z,0.00
2018-07-24T02:01:33.067Z,0.00
2018-07-24T02:02:33.063Z,0.00
2018-07-24T02:03:33.058Z,0.00
2018-07-24T02:04:33.055Z,0.00
2018-07-24T02:05:33.052Z,0.00
2018-07-24T02:06:33.056Z,0.00
2018-07-24T02:07:33.044Z,0.00
2018-07-24T02:08:33.042Z,0.00
2018-07-24T02:09:33.038Z,0.00
2018-07-24T02:10:33.037Z,0.00
2018-07-24T02:11:33.033Z,0.00
2018-07-24T02:12:33.027Z,0.00
2018-07-24T02:13:33.024Z,0.00
2018-07-24T02:14:33.021Z,0.00
2018-07-24T02:15:33.017Z,0.00
2018-07-24T02:16:33.014Z,0.00
2018-07-24T02:17:33.014Z,0.00
2018-07-24T02:18:33.008Z,0.00
2018-07-24T02:19:33.005Z,0.00
2018-07-24T02:20:33.003Z,0.00
2018-07-24T02:21:32.997Z,0.00
2018-07-24T02:22:32.993Z,0.00
2018-07-24T02:23:32.989Z,0.00
2018-07-24T02:24:32.986Z,0.00
2018-07-24T02:25:32.983Z,0.00
2018-07-24T02:26:32.980Z,0.00
2018-07-24T02:27:32.975Z,0.00
2018-07-24T02:28:32.972Z,0.00
2018-07-24T02:29:32.968Z,0.00
2018-07-24T02:30:32.966Z,0.00
2018-07-24T02:31:32.963Z,0.00
2018-07-24T02:32:32.959Z,0.00
2018-07-24T02:33:32.955Z,0.00
2018-07-24T02:34:32.951Z,0.00
2018-07-24T02:35:32.949Z,0.00
2018-07-24T02:36:32.951Z,0.00
2018-07-24T02:37:32.954Z,0.00
2018-07-24T02:38:32.938Z,0.00
2018-07-24T02:39:32.933Z,0.00
2018-07-24T02:40:32.933Z,0.00
2018-07-24T02:41:32.927Z,0.00
2018-07-24T02:42:32.925Z,0.00
2018-07-24T02:43:32.920Z,0.00
2018-07-24T02:44:32.916Z,0.00
2018-07-24T02:45:32.913Z,0.00
2018-07-24T02:46:32.910Z,0.00
2018-07-24T02:47:32.906Z,0.00
2018-07-24T02:48:32.903Z,0.00
2018-07-24T02:49:32.899Z,0.00
2018-07-24T02:50:32.899Z,0.00
2018-07-24T02:51:32.901Z,0.00
2018-07-24T02:52:32.890Z,0.00
2018-07-24T02:53:32.891Z,0.00
2018-07-24T02:54:32.888Z,0.00
2018-07-24T02:55:32.878Z,0.00
2018-07-24T02:56:32.875Z,0.00
2018-07-24T02:57:32.873Z,0.00
2018-07-24T02:58:32.869Z,0.00
2018-07-24T02:59:32.864Z,0.00
2018-07-24T03:00:32.861Z,0.00
2018-07-24T03:01:32.857Z,0.00
2018-07-24T03:02:32.854Z,0.00
2018-07-24T03:03:32.855Z,0.00
2018-07-24T03:04:32.849Z,0.00
2018-07-24T03:05:32.843Z,0.00
2018-07-24T03:06:32.840Z,0.00
2018-07-24T03:07:32.836Z,0.00
2018-07-24T03:08:32.833Z,0.00
2018-07-24T03:09:32.829Z,0.00
2018-07-24T03:10:32.826Z,0.00
2018-07-24T03:11:32.821Z,0.00
2018-07-24T03:12:32.818Z,0.00
2018-07-24T03:13:32.815Z,0.00
2018-07-24T03:14:32.811Z,0.00
2018-07-24T03:15:32.806Z,0.00
2018-07-24T03:16:32.803Z,0.00
2018-07-24T03:17:32.800Z,0.00
2018-07-24T03:18:32.796Z,0.00
2018-07-24T03:19:32.791Z,0.00
2018-07-24T03:20:32.788Z,0.00
2018-07-24T03:21:32.784Z,0.00
2018-07-24T03:22:32.781Z,0.00
2018-07-24T03:23:32.781Z,0.00
2018-07-24T03:24:32.773Z,0.00
2018-07-24T03:25:32.775Z,0.00
2018-07-24T03:26:32.771Z,0.00
2018-07-24T03:27:32.762Z,0.00
2018-07-24T03:28:32.758Z,0.00
2018-07-24T03:29:32.754Z,0.00
2018-07-24T03:30:32.752Z,0.00
2018-07-24T03:31:32.750Z,0.00
2018-07-24T03:32:32.743Z,0.00
2018-07-24T03:33:32.749Z,0.00
2018-07-24T03:34:32.736Z,0.00
2018-07-24T03:35:32.732Z,0.00
2018-07-24T03:36:32.732Z,0.00
2018-07-24T03:37:32.724Z,0.00
2018-07-24T03:38:32.721Z,0.00
2018-07-24T03:39:32.760Z,0.00
2018-07-24T03:40:32.713Z,0.00
2018-07-24T03:41:32.709Z,5.63
2018-07-24T03:42:32.705Z,5.63
2018-07-24T03:43:32.701Z,5.63
2018-07-24T03:44:32.904Z,5.63
2018-07-24T03:45:32.693Z,5.63
2018-07-24T03:46:32.690Z,5.63
2018-07-24T03:47:32.687Z,5.63
2018-07-24T03:48:32.682Z,5.63
2018-07-24T03:49:32.682Z,5.63
2018-07-24T03:50:32.675Z,11.25
2018-07-24T03:51:32.673Z,11.25
2018-07-24T03:52:32.670Z,11.25
2018-07-24T03:53:32.665Z,11.25
2018-07-24T03:54:32.660Z,11.25
2018-07-24T03:55:32.656Z,16.88
2018-07-24T03:56:32.651Z,16.88
2018-07-24T03:57:32.652Z,16.88
2018-07-24T03:58:32.645Z,16.88
2018-07-24T03:59:32.640Z,16.88
2018-07-24T04:00:32.636Z,22.50
2018-07-24T04:01:32.633Z,22.50
2018-07-24T04:02:32.631Z,22.50
2018-07-24T04:03:32.628Z,22.50
2018-07-24T04:04:32.621Z,28.13
2018-07-24T04:05:32.620Z,28.13
2018-07-24T04:06:32.613Z,28.13
2018-07-24T04:07:32.609Z,28.13
2018-07-24T04:08:32.609Z,33.75
2018-07-24T04:09:32.602Z,33.75
2018-07-24T04:10:32.601Z,33.75
2018-07-24T04:11:32.597Z,39.38
2018-07-24T04:12:32.590Z,39.38
2018-07-24T04:13:32.589Z,39.38
2018-07-24T04:14:32.583Z,45.00
2018-07-24T04:15:32.780Z,45.00
2018-07-24T04:16:32.576Z,45.00
2018-07-24T04:17:32.571Z,50.63
2018-07-24T04:18:32.568Z,50.63
2018-07-24T04:19:32.562Z,50.63
2018-07-24T04:20:32.559Z,56.25
2018-07-24T04:21:32.555Z,56.25
2018-07-24T04:22:32.551Z,56.25
2018-07-24T04:23:32.546Z,61.88
2018-07-24T04:24:32.543Z,61.88
2018-07-24T04:25:32.541Z,61.88
2018-07-24T04:26:32.539Z,67.50
2018-07-24T04:27:32.539Z,67.50
2018-07-24T04:28:32.535Z,73.13
2018-07-24T04:29:32.524Z,73.13
2018-07-24T04:30:32.520Z,73.13
2018-07-24T04:31:32.518Z,78.75
2018-07-24T04:32:32.514Z,78.75
2018-07-24T04:33:32.510Z,78.75
2018-07-24T04:34:32.505Z,84.38
2018-07-24T04:35:32.507Z,84.38
2018-07-24T04:36:32.499Z,90.00
2018-07-24T04:37:32.493Z,90.00
2018-07-24T04:38:32.492Z,95.63
2018-07-24T04:39:32.486Z,95.63
2018-07-24T04:40:32.485Z,101.25
2018-07-24T04:41:32.477Z,101.25
2018-07-24T04:42:32.474Z,101.25
2018-07-24T04:43:32.469Z,106.88
2018-07-24T04:44:32.468Z,106.88
2018-07-24T04:45:32.463Z,112.50
2018-07-24T04:46:32.458Z,112.50
2018-07-24T04:47:32.456Z,118.13
2018-07-24T04:48:32.560Z,118.13
2018-07-24T04:49:32.447Z,123.75
2018-07-24T04:50:32.446Z,123.75
2018-07-24T04:51:32.441Z,123.75
2018-07-24T04:52:32.435Z,129.38
2018-07-24T04:53:32.432Z,129.38
2018-07-24T04:54:32.432Z,129.38
2018-07-24T04:55:32.427Z,135.00
2018-07-24T04:56:32.420Z,135.00
2018-07-24T04:57:32.417Z,140.63
2018-07-24T04:58:32.413Z,140.63
2018-07-24T04:59:32.409Z,140.63
2018-07-24T05:00:32.406Z,146.25
2018-07-24T05:01:32.405Z,146.25
2018-07-24T05:02:32.437Z,151.88
2018-07-24T05:03:32.398Z,151.88
2018-07-24T05:04:32.392Z,157.50
2018-07-24T05:05:32.395Z,157.50
2018-07-24T05:06:32.384Z,163.13
2018-07-24T05:07:32.380Z,163.13
2018-07-24T05:08:32.376Z,168.75
2018-07-24T05:09:32.385Z,168.75
2018-07-24T05:10:32.380Z,174.38
2018-07-24T05:11:32.417Z,174.38
2018-07-24T05:12:32.364Z,174.38
2018-07-24T05:13:32.368Z,180.00
2018-07-24T05:14:32.357Z,180.00
2018-07-24T05:15:32.354Z,180.00
2018-07-24T05:16:32.352Z,180.00
2018-07-24T05:17:32.350Z,185.63
2018-07-24T05:18:32.347Z,191.25
2018-07-24T05:19:32.345Z,191.25
2018-07-24T05:20:32.338Z,196.88
2018-07-24T05:21:32.338Z,196.88
2018-07-24T05:22:32.337Z,202.50
2018-07-24T05:23:32.379Z,202.50
2018-07-24T05:24:32.326Z,208.13
2018-07-24T05:25:32.324Z,208.13
2018-07-24T05:26:32.323Z,208.13
2018-07-24T05:27:32.318Z,213.75
2018-07-24T05:28:32.315Z,213.75
2018-07-24T05:29:32.312Z,219.38
2018-07-24T05:30:32.310Z,225.00
2018-07-24T05:31:32.311Z,225.00
2018-07-24T05:32:32.306Z,230.63
2018-07-24T05:33:32.302Z,230.63
2018-07-24T05:34:32.299Z,236.25
2018-07-24T05:35:32.297Z,236.25
2018-07-24T05:36:32.296Z,241.88
2018-07-24T05:37:32.294Z,247.50
2018-07-24T05:38:32.291Z,247.50
2018-07-24T05:39:32.289Z,253.13
2018-07-24T05:40:32.284Z,258.75
2018-07-24T05:41:32.282Z,258.75
2018-07-24T05:42:32.282Z,264.38
2018-07-24T05:43:32.281Z,270.00
2018-07-24T05:44:32.276Z,270.00
2018-07-24T05:45:32.272Z,275.63
2018-07-24T05:46:32.270Z,275.63
2018-07-24T05:47:32.267Z,281.25
2018-07-24T05:48:32.292Z,281.25
2018-07-24T05:49:32.264Z,286.88
2018-07-24T05:50:32.262Z,286.88
2018-07-24T05:51:32.259Z,292.50
2018-07-24T05:52:32.257Z,298.13
2018-07-24T05:53:32.259Z,298.13
2018-07-24T05:54:32.258Z,303.75
2018-07-24T05:55:32.252Z,309.38
2018-07-24T05:56:32.251Z,315.00
2018-07-24T05:57:32.249Z,315.00
2018-07-24T05:58:32.246Z,320.63
2018-07-24T05:59:32.248Z,326.25
2018-07-24T06:00:32.252Z,326.25
2018-07-24T06:01:32.242Z,331.88
2018-07-24T06:02:32.240Z,337.50
2018-07-24T06:03:32.238Z,337.50
2018-07-24T06:04:32.237Z,337.50
2018-07-24T06:05:32.237Z,343.13
2018-07-24T06:06:32.236Z,348.75
2018-07-24T06:07:32.233Z,348.75
2018-07-24T06:08:32.231Z,360.00
2018-07-24T06:09:32.233Z,354.38
2018-07-24T06:10:32.229Z,360.00
2018-07-24T06:11:32.230Z,360.00
2018-07-24T06:12:32.229Z,365.63
2018-07-24T06:13:32.226Z,365.63
2018-07-24T06:14:32.286Z,371.25
2018-07-24T06:15:32.223Z,376.88
2018-07-24T06:16:32.222Z,382.50
2018-07-24T06:17:32.312Z,388.13
2018-07-24T06:18:32.223Z,393.75
2018-07-24T06:19:32.219Z,393.75
2018-07-24T06:20:32.220Z,399.38
2018-07-24T06:21:32.220Z,405.00
2018-07-24T06:22:32.221Z,405.00
2018-07-24T06:23:32.262Z,410.63
2018-07-24T06:24:32.217Z,416.25
2018-07-24T06:25:32.216Z,416.25
2018-07-24T06:26:32.215Z,421.88
2018-07-24T06:27:32.213Z,427.50
2018-07-24T06:28:32.217Z,427.50
2018-07-24T06:29:32.216Z,433.13
2018-07-24T06:30:32.213Z,438.75
2018-07-24T06:31:32.212Z,444.38
2018-07-24T06:32:32.212Z,444.38
2018-07-24T06:33:32.213Z,450.00
2018-07-24T06:34:32.212Z,455.63
2018-07-24T06:35:32.211Z,461.25
2018-07-24T06:36:32.213Z,466.88
2018-07-24T06:37:32.212Z,466.88
2018-07-24T06:38:32.213Z,472.50
2018-07-24T06:39:32.223Z,472.50
2018-07-24T06:40:32.213Z,478.13
2018-07-24T06:41:32.212Z,478.13
2018-07-24T06:42:32.211Z,483.75
2018-07-24T06:43:32.211Z,489.38
2018-07-24T06:44:32.246Z,489.38
2018-07-24T06:45:32.212Z,495.00
2018-07-24T06:46:32.418Z,500.63
2018-07-24T06:47:32.213Z,500.63
2018-07-24T06:48:32.417Z,506.25
2018-07-24T06:49:32.213Z,511.88
2018-07-24T06:50:32.214Z,506.25
2018-07-24T06:51:32.231Z,506.25
2018-07-24T06:52:32.215Z,511.88
2018-07-24T06:53:32.215Z,511.88
2018-07-24T06:54:32.217Z,517.50
2018-07-24T06:55:32.217Z,517.50
2018-07-24T06:56:32.244Z,523.13
2018-07-24T06:57:32.219Z,528.75
2018-07-24T06:58:32.224Z,534.38
2018-07-24T06:59:32.222Z,540.00
2018-07-24T07:00:32.424Z,540.00
2018-07-24T07:01:32.231Z,545.63
2018-07-24T07:02:32.225Z,551.25
2018-07-24T07:03:32.288Z,556.88
2018-07-24T07:04:32.226Z,556.88
2018-07-24T07:05:32.229Z,562.50
2018-07-24T07:06:32.229Z,568.13
2018-07-24T07:07:32.284Z,568.13
2018-07-24T07:08:32.232Z,573.75
2018-07-24T07:09:32.237Z,585.00
2018-07-24T07:10:32.239Z,585.00
2018-07-24T07:11:32.237Z,579.38
2018-07-24T07:12:32.240Z,585.00
2018-07-24T07:13:32.328Z,590.63
2018-07-24T07:14:32.246Z,596.25
2018-07-24T07:15:32.243Z,635.63
2018-07-24T07:16:32.246Z,618.75
2018-07-24T07:17:32.249Z,607.50
2018-07-24T07:18:32.255Z,613.13
2018-07-24T07:19:32.256Z,618.75
2018-07-24T07:20:32.276Z,630.00
2018-07-24T07:21:32.261Z,635.63
2018-07-24T07:22:32.271Z,646.88
2018-07-24T07:23:32.318Z,860.63
2018-07-24T07:24:32.270Z,1113.75
2018-07-24T07:25:32.274Z,1473.75
2018-07-24T07:26:32.278Z,1597.50
2018-07-24T07:27:32.288Z,1648.13
2018-07-24T07:28:32.490Z,1642.50
2018-07-24T07:29:32.294Z,1659.38
2018-07-24T07:30:32.301Z,1738.13
2018-07-24T07:31:32.308Z,1743.75
2018-07-24T07:32:32.350Z,1783.13
2018-07-24T07:33:32.322Z,1845.00
2018-07-24T07:34:32.331Z,1833.75
2018-07-24T07:35:32.340Z,1788.75
2018-07-24T07:36:32.344Z,1794.38
2018-07-24T07:37:32.352Z,1884.38
2018-07-24T07:38:32.363Z,1890.00
2018-07-24T07:39:32.371Z,1743.75
2018-07-24T07:40:32.378Z,1676.25
2018-07-24T07:41:32.387Z,1839.38
2018-07-24T07:43:32.407Z,2081.25
2018-07-24T07:44:32.417Z,2025.00
2018-07-24T07:45:32.428Z,2030.63
2018-07-24T07:46:32.439Z,2109.38
2018-07-24T07:47:32.448Z,2008.13
2018-07-24T07:48:32.459Z,1974.38
2018-07-24T07:49:32.472Z,2103.75
2018-07-24T07:50:32.481Z,2216.25
2018-07-24T07:51:32.525Z,2238.75
2018-07-24T07:52:32.561Z,2311.88
2018-07-24T07:53:32.515Z,2295.00
2018-07-24T07:54:32.571Z,2233.13
2018-07-24T07:55:32.538Z,2199.38
2018-07-24T07:56:32.550Z,2250.00
2018-07-24T07:57:32.765Z,2272.50
2018-07-24T07:58:32.575Z,2328.75
2018-07-24T07:59:32.588Z,2396.25
2018-07-24T08:00:32.603Z,2379.38
2018-07-24T08:01:32.616Z,2385.00
2018-07-24T08:02:32.680Z,2463.75
2018-07-24T08:03:32.637Z,2458.13
2018-07-24T08:04:32.651Z,2452.50
2018-07-24T08:05:32.666Z,2407.50
2018-07-24T08:06:32.678Z,2356.88
2018-07-24T08:07:32.693Z,2356.88
2018-07-24T08:08:32.704Z,2379.38
2018-07-24T08:09:32.718Z,2413.13
2018-07-24T08:10:32.733Z,2520.00
2018-07-24T08:11:32.745Z,2621.25
2018-07-24T08:12:32.763Z,2621.25
2018-07-24T08:13:32.774Z,2565.00
2018-07-24T08:14:32.789Z,2570.63
2018-07-24T08:15:32.802Z,2638.13
2018-07-24T08:16:32.817Z,2666.25
2018-07-24T08:17:32.831Z,2677.50
2018-07-24T08:18:32.853Z,2604.38
2018-07-24T08:19:32.861Z,2452.50
2018-07-24T08:20:32.875Z,2531.25
2018-07-24T08:21:32.891Z,2801.25
2018-07-24T08:22:32.911Z,2823.75
2018-07-24T08:23:32.925Z,2851.88
2018-07-24T08:24:32.935Z,2840.63
2018-07-24T08:25:32.950Z,2874.38
2018-07-24T08:26:32.965Z,2840.63
2018-07-24T08:27:32.981Z,2812.50
2018-07-24T08:28:32.998Z,2868.75
2018-07-24T08:29:33.011Z,2953.13
2018-07-24T08:30:33.028Z,2975.63
2018-07-24T08:31:33.042Z,2958.75
2018-07-24T08:32:33.057Z,3043.13
2018-07-24T08:33:33.077Z,3088.13
2018-07-24T08:34:33.094Z,3020.63
2018-07-24T08:35:33.103Z,3043.13
2018-07-24T08:36:33.122Z,3020.63
2018-07-24T08:37:33.138Z,2975.63
2018-07-24T08:38:33.154Z,2851.88
2018-07-24T08:39:33.167Z,2835.00
2018-07-24T08:40:33.184Z,2953.13
2018-07-24T08:41:33.200Z,2784.38
2018-07-24T08:42:33.221Z,2604.38
2018-07-24T08:43:33.232Z,2683.13
2018-07-24T08:44:33.249Z,2615.63
2018-07-24T08:45:33.267Z,2531.25
2018-07-24T08:46:33.283Z,1923.75
2018-07-24T08:47:33.299Z,2570.63
2018-07-24T08:48:33.315Z,2671.88
2018-07-24T08:49:33.333Z,2745.00
2018-07-24T08:50:33.349Z,2559.38
2018-07-24T08:51:33.369Z,1006.88
2018-07-24T08:52:33.397Z,1170.00
2018-07-24T08:53:33.646Z,2497.50
2018-07-24T08:54:33.466Z,2655.00
2018-07-24T08:55:33.974Z,2683.13
2018-07-24T08:56:33.446Z,1018.13
2018-07-24T08:57:33.463Z,1957.50
2018-07-24T08:58:33.476Z,2480.63
2018-07-24T08:59:33.491Z,2587.50
2018-07-24T09:00:33.556Z,2733.75
2018-07-24T09:01:33.525Z,945.00
2018-07-24T09:02:33.537Z,1310.63
2018-07-24T09:03:33.621Z,1974.38
2018-07-24T09:04:33.567Z,939.38
2018-07-24T09:05:33.582Z,894.38
2018-07-24T09:06:33.596Z,877.50
2018-07-24T09:07:33.609Z,883.13
2018-07-24T09:08:33.625Z,916.88
2018-07-24T09:09:33.637Z,945.00
2018-07-24T09:10:33.648Z,1361.25
2018-07-24T09:11:33.663Z,1968.75
2018-07-24T09:12:33.672Z,1985.63
2018-07-24T09:13:33.688Z,2536.88
2018-07-24T09:14:33.702Z,2497.50
2018-07-24T09:15:33.751Z,973.13
2018-07-24T09:16:33.726Z,2418.75
2018-07-24T09:17:33.736Z,2610.00
2018-07-24T09:18:33.749Z,2739.38
2018-07-24T09:19:33.762Z,2761.88
2018-07-24T09:20:33.776Z,2441.25
2018-07-24T09:21:33.791Z,1620.00
2018-07-24T09:22:33.805Z,1957.50
2018-07-24T09:23:33.821Z,1890.00
2018-07-24T09:24:33.836Z,1226.25
2018-07-24T09:25:33.852Z,2671.88
2018-07-24T09:26:33.861Z,2356.88
2018-07-24T09:27:33.878Z,2649.38
2018-07-24T09:28:33.888Z,2508.75
2018-07-24T09:29:33.903Z,2857.50
2018-07-24T09:30:33.927Z,2784.38
2018-07-24T09:31:33.931Z,2486.25
2018-07-24T09:32:33.946Z,2705.63
2018-07-24T09:33:33.999Z,2818.13
2018-07-24T09:34:33.978Z,2626.88
2018-07-24T09:35:34.001Z,2604.38
2018-07-24T09:36:34.007Z,2925.00
2018-07-24T09:37:34.025Z,2008.13
2018-07-24T09:38:34.038Z,2795.63
2018-07-24T09:39:34.053Z,2041.88
2018-07-24T09:40:34.082Z,3020.63
2018-07-24T09:41:34.085Z,2823.75
2018-07-24T09:42:34.103Z,2941.88
2018-07-24T09:43:34.114Z,2975.63
2018-07-24T09:44:34.130Z,2998.13
2018-07-24T09:45:34.145Z,2970.00
2018-07-24T09:46:34.365Z,3116.25
2018-07-24T09:47:34.178Z,3240.00
2018-07-24T09:48:34.197Z,3183.75
2018-07-24T09:49:34.215Z,3262.50
2018-07-24T09:50:34.266Z,3386.25
2018-07-24T09:51:34.249Z,3346.88
2018-07-24T09:52:34.271Z,3279.38
2018-07-24T09:53:34.281Z,3195.00
2018-07-24T09:54:34.348Z,3183.75
2018-07-24T09:55:34.523Z,3307.50
2018-07-24T09:56:34.337Z,3273.75
2018-07-24T09:57:34.556Z,3200.63
2018-07-24T09:58:34.376Z,3082.50
2018-07-24T09:59:34.392Z,3071.25
2018-07-24T10:00:34.414Z,3121.88
2018-07-24T10:01:34.427Z,3211.88
2018-07-24T10:02:34.450Z,3161.25
2018-07-24T10:03:34.465Z,3031.88
2018-07-24T10:04:34.485Z,2812.50
2018-07-24T10:05:34.504Z,2334.38
2018-07-24T10:06:34.523Z,1586.25
2018-07-24T10:07:34.540Z,2953.13
2018-07-24T10:08:34.559Z,3144.38
2018-07-24T10:09:34.578Z,3110.63
2018-07-24T10:10:34.599Z,2289.38
2018-07-24T10:11:34.615Z,3116.25
2018-07-24T10:12:34.642Z,3285.00
2018-07-24T10:13:34.652Z,3262.50
2018-07-24T10:14:34.713Z,3127.50
2018-07-24T10:15:34.693Z,3155.63
2018-07-24T10:16:34.741Z,3206.25
2018-07-24T10:17:34.722Z,3285.00
2018-07-24T10:18:34.741Z,3133.13
2018-07-24T10:19:34.761Z,3127.50
2018-07-24T10:20:34.981Z,3082.50
2018-07-24T10:21:34.801Z,3240.00
2018-07-24T10:22:34.818Z,3099.38
2018-07-24T10:23:34.837Z,3088.13
2018-07-24T10:24:34.856Z,2981.25
2018-07-24T10:25:34.877Z,3037.50
2018-07-24T10:26:34.898Z,3071.25
2018-07-24T10:27:34.918Z,3161.25
2018-07-24T10:28:35.143Z,3088.13
2018-07-24T10:29:34.961Z,3150.00
2018-07-24T10:30:34.976Z,3144.38
2018-07-24T10:31:35.003Z,3088.13
2018-07-24T10:32:35.015Z,3037.50
2018-07-24T10:33:35.036Z,3009.38
2018-07-24T10:34:35.055Z,3054.38
2018-07-24T10:35:35.076Z,3110.63
2018-07-24T10:36:35.108Z,3121.88
2018-07-24T10:37:35.115Z,3217.50
2018-07-24T10:38:35.141Z,3268.13
2018-07-24T10:39:35.154Z,3307.50
2018-07-24T10:40:35.196Z,3386.25
2018-07-24T10:41:35.196Z,3363.75
2018-07-24T10:42:35.216Z,3223.13
2018-07-24T10:43:35.244Z,3178.13
2018-07-24T10:44:35.458Z,3161.25
2018-07-24T10:45:35.277Z,3150.00
2018-07-24T10:46:35.298Z,3240.00
2018-07-24T10:47:35.321Z,3397.50
2018-07-24T10:48:35.342Z,3414.38
2018-07-24T10:49:35.366Z,3459.38
2018-07-24T10:50:35.381Z,3448.13
2018-07-24T10:52:35.422Z,3150.00
2018-07-24T10:53:35.443Z,3060.00
2018-07-24T10:54:35.671Z,2728.13
2018-07-24T10:55:35.488Z,3020.63
2018-07-24T10:56:35.509Z,2553.75
2018-07-24T10:57:35.527Z,2857.50
2018-07-24T10:58:35.552Z,2964.38
2018-07-24T10:59:35.571Z,3020.63
2018-07-24T11:00:35.589Z,2941.88
2018-07-24T11:01:35.608Z,2790.00
2018-07-24T11:02:35.627Z,2880.00
2018-07-24T11:03:35.653Z,3048.75
2018-07-24T11:04:35.666Z,3217.50
2018-07-24T11:05:35.686Z,3420.00
2018-07-24T11:06:35.706Z,3403.13
2018-07-24T11:07:35.729Z,3071.25
2018-07-24T11:08:35.746Z,3296.25
2018-07-24T11:09:35.771Z,3206.25
2018-07-24T11:10:35.791Z,3155.63
2018-07-24T11:11:35.809Z,3099.38
2018-07-24T11:12:35.836Z,3172.50
2018-07-24T11:13:36.046Z,3172.50
2018-07-24T11:14:35.864Z,3037.50
2018-07-24T11:15:35.885Z,2964.38
2018-07-24T11:16:35.924Z,3009.38
2018-07-24T11:17:35.923Z,3133.13
2018-07-24T11:18:35.943Z,3195.00
2018-07-24T11:19:35.968Z,3217.50
2018-07-24T11:20:35.983Z,3099.38
2018-07-24T11:21:36.023Z,3093.75
2018-07-24T11:22:36.164Z,3054.38
2018-07-24T11:23:36.045Z,3031.88
2018-07-24T11:24:36.067Z,3183.75
2018-07-24T11:25:36.083Z,2773.13
2018-07-24T11:26:36.104Z,3099.38
2018-07-24T11:27:36.124Z,1485.00
2018-07-24T11:28:36.144Z,2874.38
2018-07-24T11:29:36.164Z,3105.00
2018-07-24T11:30:36.187Z,3121.88
2018-07-24T11:31:36.206Z,3178.13
2018-07-24T11:32:36.248Z,3189.38
2018-07-24T11:33:36.412Z,2176.88
2018-07-24T11:34:36.267Z,2925.00
2018-07-24T11:35:36.379Z,2390.63
2018-07-24T11:36:36.309Z,2970.00
2018-07-24T11:37:36.325Z,3268.13
2018-07-24T11:38:36.432Z,1327.50
2018-07-24T11:39:36.365Z,1192.50
2018-07-24T11:40:36.385Z,1102.50
2018-07-24T11:41:36.402Z,1057.50
2018-07-24T11:42:36.423Z,1068.75
2018-07-24T11:43:36.438Z,1046.25
2018-07-24T11:44:36.456Z,1057.50
2018-07-24T11:45:36.474Z,1057.50
2018-07-24T11:46:36.494Z,1091.25
2018-07-24T11:47:36.506Z,1569.38
2018-07-24T11:48:36.519Z,2874.38
2018-07-24T11:49:36.537Z,2998.13
2018-07-24T11:50:36.548Z,3048.75
2018-07-24T11:51:36.681Z,3189.38
2018-07-24T11:52:36.583Z,1451.25
2018-07-24T11:53:36.597Z,3200.63
2018-07-24T11:54:36.612Z,3133.13
2018-07-24T11:55:36.624Z,3178.13
2018-07-24T11:56:36.643Z,2283.75
2018-07-24T11:57:36.701Z,1198.13
2018-07-24T11:58:36.684Z,1389.38
2018-07-24T11:59:36.690Z,1220.63
2018-07-24T12:00:36.704Z,1209.38
2018-07-24T12:01:36.717Z,1231.88
2018-07-24T12:02:36.731Z,1158.75
2018-07-24T12:03:36.773Z,1276.88
2018-07-24T12:04:36.760Z,2109.38
2018-07-24T12:05:36.775Z,1395.00
2018-07-24T12:06:36.784Z,2520.00
2018-07-24T12:07:37.002Z,2761.88
2018-07-24T12:08:36.816Z,2891.25
2018-07-24T12:09:36.825Z,2790.00
2018-07-24T12:10:36.843Z,2604.38
2018-07-24T12:11:36.863Z,2233.13
2018-07-24T12:12:36.872Z,1501.88
2018-07-24T12:13:36.880Z,1828.13
2018-07-24T12:14:36.938Z,2559.38
2018-07-24T12:15:36.911Z,1681.88
2018-07-24T12:16:36.957Z,1721.25
2018-07-24T12:17:36.937Z,2761.88
2018-07-24T12:18:36.950Z,2992.50
2018-07-24T12:19:36.985Z,2784.38
2018-07-24T12:20:37.025Z,1220.63
2018-07-24T12:21:36.997Z,1423.13
2018-07-24T12:22:37.010Z,2683.13
2018-07-24T12:23:37.022Z,3099.38
2018-07-24T12:24:37.037Z,3099.38
2018-07-24T12:25:37.053Z,3093.75
2018-07-24T12:26:37.068Z,1895.63
2018-07-24T12:27:37.082Z,3003.75
2018-07-24T12:28:37.099Z,3031.88
2018-07-24T12:29:37.114Z,3043.13
2018-07-24T12:30:37.134Z,3060.00
2018-07-24T12:31:37.147Z,3037.50
2018-07-24T12:32:37.165Z,2823.75
2018-07-24T12:33:37.179Z,3003.75
2018-07-24T12:34:37.196Z,2986.88
2018-07-24T12:35:37.212Z,2908.13
2018-07-24T12:36:37.230Z,3043.13